createdAt,value
2023-03-01T00:01:32.175Z,6.85
2023-03-01T00:04:00.495Z,6.63
2023-03-01T00:06:28.908Z,5.35
2023-03-01T00:08:55.912Z,6.43
2023-03-01T00:11:27.981Z,5.20
2023-03-01T00:13:59.068Z,6.68
2023-03-01T00:16:35.522Z,5.22
2023-03-01T00:19:03.162Z,5.80
2023-03-01T00:21:30.292Z,5.65
2023-03-01T00:23:57.954Z,6.05
2023-03-01T00:26:26.664Z,6.60
2023-03-01T00:28:54.703Z,7.93
2023-03-01T00:31:24.907Z,6.35
2023-03-01T00:33:59.889Z,7.88
2023-03-01T00:36:30.826Z,7.32
2023-03-01T00:38:58.183Z,8.48
2023-03-01T00:41:27.588Z,5.97
2023-03-01T00:43:54.744Z,8.13
2023-03-01T00:46:26.283Z,6.32
2023-03-01T00:48:53.280Z,7.88
2023-03-01T00:51:27.345Z,6.93
2023-03-01T00:53:57.783Z,5.47
2023-03-01T00:56:24.986Z,6.05
2023-03-01T00:58:52.070Z,7.30
2023-03-01T01:01:23.527Z,7.45
2023-03-01T01:03:57.431Z,5.85
2023-03-01T01:06:31.265Z,6.38
2023-03-01T01:08:58.343Z,7.32
2023-03-01T01:11:27.681Z,9.07
2023-03-01T01:13:55.530Z,8.13
2023-03-01T01:16:25.656Z,6.45
2023-03-01T01:18:53.185Z,7.32
2023-03-01T01:21:23.030Z,7.45
2023-03-01T01:23:50.791Z,7.25
2023-03-01T01:26:25.245Z,7.40
2023-03-01T01:28:52.811Z,8.38
2023-03-01T01:31:21.013Z,8.32
2023-03-01T01:33:48.094Z,9.20
2023-03-01T01:36:14.971Z,7.47
2023-03-01T01:38:43.501Z,6.53
2023-03-01T01:41:14.968Z,8.07
2023-03-01T01:43:45.573Z,7.95
2023-03-01T01:46:34.144Z,8.90
2023-03-01T01:49:05.925Z,9.00
2023-03-01T01:51:41.943Z,7.97
2023-03-01T01:54:29.352Z,8.43
2023-03-01T01:57:03.136Z,6.50
2023-03-01T01:59:33.406Z,7.43
2023-03-01T02:02:03.189Z,6.63
2023-03-01T02:04:32.498Z,7.60
2023-03-01T02:07:10.572Z,8.15
2023-03-01T02:09:37.607Z,7.68
2023-03-01T02:12:05.709Z,8.52
2023-03-01T02:14:32.529Z,7.47
2023-03-01T02:16:59.366Z,10.05
2023-03-01T02:19:51.972Z,7.53
2023-03-01T02:22:36.211Z,8.73
2023-03-01T02:25:52.505Z,7.35
2023-03-01T02:28:42.361Z,8.45
2023-03-01T02:31:30.215Z,6.00
2023-03-01T02:33:58.430Z,9.93
2023-03-01T02:39:03.046Z,7.50
2023-03-01T02:41:33.851Z,9.63
2023-03-01T02:44:00.613Z,7.47
2023-03-01T02:46:27.544Z,8.98
2023-03-01T02:48:57.813Z,7.97
2023-03-01T02:51:58.042Z,7.93
2023-03-01T02:54:55.544Z,9.32
2023-03-01T02:57:24.835Z,8.18
2023-03-01T02:59:53.934Z,8.48
2023-03-01T03:02:37.846Z,7.65
2023-03-01T03:05:18.787Z,7.43
2023-03-01T03:07:48.397Z,8.57
2023-03-01T03:10:25.581Z,8.85
2023-03-01T03:12:58.960Z,7.65
2023-03-01T03:15:28.226Z,7.63
2023-03-01T03:17:55.240Z,9.02
2023-03-01T03:20:25.485Z,9.98
2023-03-01T03:22:56.924Z,8.63
2023-03-01T03:25:24.590Z,8.43
2023-03-01T03:27:57.912Z,7.78
2023-03-01T03:30:33.796Z,8.15
2023-03-01T03:33:00.890Z,8.35
2023-03-01T03:35:35.047Z,8.93
2023-03-01T03:38:16.424Z,8.05
2023-03-01T03:40:53.206Z,8.07
2023-03-01T03:43:24.442Z,8.38
2023-03-01T03:45:53.040Z,10.30
2023-03-01T03:48:20.315Z,9.00
2023-03-01T03:50:56.049Z,7.97
2023-03-01T03:53:26.482Z,8.57
2023-03-01T03:55:54.386Z,10.13
2023-03-01T03:58:24.752Z,8.68
2023-03-01T04:00:58.744Z,9.00
2023-03-01T04:03:27.778Z,9.32
2023-03-01T04:05:54.867Z,8.93
2023-03-01T04:08:23.720Z,8.57
2023-03-01T04:10:53.367Z,10.10
2023-03-01T04:13:23.546Z,8.15
2023-03-01T04:15:52.080Z,11.10
2023-03-01T04:18:21.650Z,8.43
2023-03-01T04:20:49.112Z,7.22
2023-03-01T04:23:21.852Z,9.40
2023-03-01T04:25:58.868Z,10.05
2023-03-01T04:28:30.839Z,8.43
2023-03-01T04:30:59.756Z,9.98
2023-03-01T04:33:27.031Z,9.35
2023-03-01T04:35:54.073Z,8.27
2023-03-01T04:38:22.417Z,8.95
2023-03-01T04:40:49.720Z,9.48
2023-03-01T04:43:16.539Z,7.40
2023-03-01T04:45:43.837Z,9.45
2023-03-01T04:48:10.677Z,9.38
2023-03-01T04:50:37.570Z,8.40
2023-03-01T04:53:04.801Z,7.90
2023-03-01T04:55:32.719Z,9.02
2023-03-01T04:58:00.135Z,8.13
2023-03-01T05:00:27.465Z,8.70
2023-03-01T05:03:01.237Z,10.32
2023-03-01T05:05:40.134Z,9.10
2023-03-01T05:08:09.268Z,10.13
2023-03-01T05:10:41.828Z,11.10
2023-03-01T05:13:09.210Z,9.35
2023-03-01T05:15:37.593Z,10.55
2023-03-01T05:18:04.595Z,10.25
2023-03-01T05:20:31.566Z,8.93
2023-03-01T05:23:00.805Z,9.13
2023-03-01T05:25:28.403Z,9.02
2023-03-01T05:27:55.184Z,9.15
2023-03-01T05:30:22.731Z,9.30
2023-03-01T05:32:56.925Z,10.75
2023-03-01T05:35:24.374Z,9.23
2023-03-01T05:37:52.298Z,9.30
2023-03-01T05:40:25.278Z,8.95
2023-03-01T05:42:57.295Z,8.80
2023-03-01T05:45:26.447Z,10.85
2023-03-01T05:47:55.179Z,9.05
2023-03-01T05:50:26.435Z,8.98
2023-03-01T05:53:00.220Z,10.15
2023-03-01T05:55:29.250Z,9.95
2023-03-01T05:57:56.679Z,8.82
2023-03-01T06:00:23.702Z,9.95
2023-03-01T06:02:51.496Z,8.52
2023-03-01T06:05:19.010Z,8.07
2023-03-01T06:07:45.838Z,9.85
2023-03-01T06:10:14.014Z,8.75
2023-03-01T06:12:42.589Z,10.25
2023-03-01T06:15:11.815Z,8.43
2023-03-01T06:17:41.632Z,10.13
2023-03-01T06:20:15.516Z,9.57
2023-03-01T06:22:43.336Z,7.93
2023-03-01T06:25:13.930Z,11.40
2023-03-01T06:27:41.172Z,9.10
2023-03-01T06:30:10.965Z,7.63
2023-03-01T06:32:38.822Z,10.63
2023-03-01T06:35:06.582Z,9.15
2023-03-01T06:37:33.337Z,9.90
2023-03-01T06:40:00.126Z,7.70
2023-03-01T06:42:26.928Z,8.55
2023-03-01T06:44:53.656Z,11.18
2023-03-01T06:47:20.396Z,8.32
2023-03-01T06:49:47.098Z,7.95
2023-03-01T06:52:13.817Z,7.35
2023-03-01T06:54:40.553Z,9.70
2023-03-01T06:57:07.311Z,8.10
2023-03-01T06:59:34.026Z,9.63
2023-03-01T07:02:00.819Z,8.60
2023-03-01T07:04:29.665Z,9.23
2023-03-01T07:06:56.429Z,7.78
2023-03-01T07:09:24.966Z,8.23
2023-03-01T07:11:51.967Z,8.48
2023-03-01T07:14:18.743Z,7.80
2023-03-01T07:16:45.474Z,8.00
2023-03-01T07:19:12.273Z,8.52
2023-03-01T07:21:39.772Z,7.72
2023-03-01T07:24:09.845Z,9.05
2023-03-01T07:26:37.393Z,9.55
2023-03-01T07:29:07.667Z,8.82
2023-03-01T07:31:34.766Z,8.80
2023-03-01T07:34:01.519Z,9.35
2023-03-01T07:36:28.346Z,7.78
2023-03-01T07:38:56.777Z,9.65
2023-03-01T07:41:23.593Z,8.25
2023-03-01T07:43:50.317Z,9.98
2023-03-01T07:46:17.116Z,10.43
2023-03-01T07:48:43.839Z,8.85
2023-03-01T07:51:11.265Z,9.70
2023-03-01T07:53:38.313Z,8.80
2023-03-01T07:56:11.874Z,10.73
2023-03-01T07:58:43.565Z,10.93
2023-03-01T08:01:17.204Z,8.95
2023-03-01T08:03:44.840Z,11.82
2023-03-01T08:06:14.245Z,9.80
2023-03-01T08:08:41.244Z,7.43
2023-03-01T08:11:15.477Z,8.70
2023-03-01T08:13:44.444Z,10.32
2023-03-01T08:16:15.518Z,9.23
2023-03-01T08:18:44.153Z,9.20
2023-03-01T08:21:15.144Z,9.60
2023-03-01T08:23:44.015Z,9.65
2023-03-01T08:26:13.887Z,9.23
2023-03-01T08:28:41.805Z,10.13
2023-03-01T08:31:23.328Z,9.45
2023-03-01T08:33:57.330Z,7.60
2023-03-01T08:36:31.668Z,10.35
2023-03-01T08:38:59.224Z,10.40
2023-03-01T08:41:26.404Z,8.95
2023-03-01T08:43:53.964Z,9.65
2023-03-01T08:46:20.719Z,9.10
2023-03-01T08:48:50.233Z,12.00
2023-03-01T08:51:19.364Z,9.95
2023-03-01T08:53:46.634Z,10.13
2023-03-01T08:56:14.346Z,8.80
2023-03-01T08:58:41.321Z,10.70
2023-03-01T09:01:10.015Z,9.35
2023-03-01T09:03:37.287Z,10.05
2023-03-01T09:06:06.533Z,10.77
2023-03-01T09:08:37.657Z,10.75
2023-03-01T09:11:07.138Z,9.82
2023-03-01T09:13:34.121Z,10.07
2023-03-01T09:16:03.810Z,10.73
2023-03-01T09:18:30.749Z,10.95
2023-03-01T09:21:09.346Z,9.27
2023-03-01T09:23:39.860Z,10.15
2023-03-01T09:26:09.967Z,8.40
2023-03-01T09:28:42.044Z,9.85
2023-03-01T09:31:09.504Z,9.82
2023-03-01T09:33:36.337Z,9.45
2023-03-01T09:36:11.080Z,11.20
2023-03-01T09:38:37.807Z,11.52
2023-03-01T09:41:12.600Z,9.32
2023-03-01T09:43:56.474Z,10.77
2023-03-01T09:46:25.914Z,10.13
2023-03-01T09:49:11.871Z,9.32
2023-03-01T09:51:38.816Z,9.77
2023-03-01T09:54:07.352Z,9.32
2023-03-01T09:56:53.081Z,9.65
2023-03-01T09:59:58.848Z,10.40
2023-03-01T10:02:49.066Z,7.97
2023-03-01T10:05:53.324Z,10.68
2023-03-01T10:08:47.907Z,7.35
2023-03-01T10:11:25.079Z,7.72
2023-03-01T10:14:31.985Z,9.95
2023-03-01T10:17:05.340Z,10.07
2023-03-01T10:19:38.727Z,9.15
2023-03-01T10:22:24.424Z,8.77
2023-03-01T10:24:53.882Z,9.00
2023-03-01T10:27:37.851Z,8.15
2023-03-01T10:30:24.058Z,8.73
2023-03-01T10:32:54.993Z,10.07
2023-03-01T10:35:29.644Z,9.27
2023-03-01T10:38:08.412Z,10.90
2023-03-01T10:40:37.520Z,10.18
2023-03-01T10:43:07.076Z,8.70
2023-03-01T10:45:40.543Z,10.05
2023-03-01T10:48:18.405Z,10.32
2023-03-01T10:51:18.782Z,8.57
2023-03-01T10:53:52.829Z,9.68
2023-03-01T10:56:19.620Z,11.43
2023-03-01T10:59:05.645Z,10.80
2023-03-01T11:01:36.887Z,11.55
2023-03-01T11:04:06.465Z,9.73
2023-03-01T11:06:41.345Z,11.23
2023-03-01T11:09:22.260Z,9.43
2023-03-01T11:11:57.990Z,10.95
2023-03-01T11:14:28.321Z,11.63
2023-03-01T11:17:04.611Z,11.52
2023-03-01T11:19:32.441Z,11.15
2023-03-01T11:22:21.278Z,11.02
2023-03-01T11:25:07.075Z,12.70
2023-03-01T11:27:42.084Z,10.23
2023-03-01T11:30:21.107Z,11.00
2023-03-01T11:33:02.785Z,11.32
2023-03-01T11:35:30.737Z,13.27
2023-03-01T11:38:26.288Z,11.57
2023-03-01T11:41:26.471Z,9.50
2023-03-01T11:44:02.558Z,10.73
2023-03-01T11:46:32.281Z,12.25
2023-03-01T11:49:30.021Z,11.20
2023-03-01T11:52:08.110Z,11.45
2023-03-01T11:54:51.194Z,10.25
2023-03-01T12:00:39.667Z,9.77
2023-03-01T12:03:35.043Z,12.48
2023-03-01T12:06:45.124Z,11.00
2023-03-01T12:09:39.486Z,10.93
2023-03-01T12:12:43.721Z,11.52
2023-03-01T12:15:25.757Z,8.88
2023-03-01T12:18:03.776Z,8.68
2023-03-01T12:20:49.718Z,8.93
2023-03-01T12:24:22.509Z,11.85
2023-03-01T12:26:59.181Z,11.57
2023-03-01T12:29:58.275Z,13.10
2023-03-01T12:32:36.801Z,11.68
2023-03-01T12:35:53.362Z,9.70
2023-03-01T12:38:38.751Z,13.32
2023-03-01T12:41:44.692Z,11.90
2023-03-01T12:44:51.172Z,12.02
2023-03-01T12:48:12.142Z,9.35
2023-03-01T12:50:49.093Z,10.35
2023-03-01T12:53:28.748Z,13.00
2023-03-01T12:56:13.117Z,10.88
2023-03-01T12:58:56.870Z,11.45
2023-03-01T13:01:58.029Z,11.65
2023-03-01T13:04:46.746Z,10.10
2023-03-01T13:07:54.692Z,12.50
2023-03-01T13:10:33.303Z,11.00
2023-03-01T13:13:09.987Z,11.48
2023-03-01T13:15:38.883Z,10.80
2023-03-01T13:18:26.675Z,13.13
2023-03-01T13:20:58.603Z,11.23
2023-03-01T13:23:34.395Z,12.20
2023-03-01T13:26:12.537Z,12.07
2023-03-01T13:28:45.338Z,10.70
2023-03-01T13:31:32.270Z,12.10
2023-03-01T13:34:08.399Z,12.23
2023-03-01T13:36:38.468Z,13.13
2023-03-01T13:39:24.546Z,11.23
2023-03-01T13:41:54.307Z,11.68
2023-03-01T13:44:39.883Z,12.95
2023-03-01T13:47:14.920Z,12.43
2023-03-01T13:50:04.143Z,12.07
2023-03-01T13:52:52.368Z,13.02
2023-03-01T13:55:28.484Z,11.45
2023-03-01T13:58:00.964Z,12.77
2023-03-01T14:00:39.353Z,13.27
2023-03-01T14:03:13.699Z,12.25
2023-03-01T14:05:45.248Z,12.07
2023-03-01T14:08:29.129Z,12.55
2023-03-01T14:11:14.732Z,11.98
2023-03-01T14:13:59.964Z,14.02
2023-03-01T14:16:50.691Z,14.50
2023-03-01T14:19:34.904Z,12.95
2023-03-01T14:22:17.190Z,12.35
2023-03-01T14:25:31.186Z,12.70
2023-03-01T14:28:04.696Z,12.98
2023-03-01T14:30:40.880Z,13.00
2023-03-01T14:33:27.169Z,14.60
2023-03-01T14:36:14.372Z,15.70
2023-03-01T14:41:16.642Z,12.65
2023-03-01T14:44:01.613Z,12.50
2023-03-01T14:46:37.661Z,13.18
2023-03-01T14:49:15.284Z,13.38
2023-03-01T14:51:51.316Z,13.30
2023-03-01T14:54:27.194Z,14.20
2023-03-01T14:56:58.612Z,14.13
2023-03-01T14:59:25.613Z,13.57
2023-03-01T15:01:54.969Z,13.60
2023-03-01T15:04:24.072Z,14.55
2023-03-01T15:06:56.393Z,14.52
2023-03-01T15:09:23.974Z,13.68
2023-03-01T15:11:50.751Z,14.23
2023-03-01T15:14:44.105Z,13.95
2023-03-01T15:17:44.923Z,15.15
2023-03-01T15:20:22.780Z,14.75
2023-03-01T15:22:49.799Z,14.48
2023-03-01T15:25:28.017Z,14.00
2023-03-01T15:27:56.751Z,14.35
2023-03-01T15:30:41.950Z,13.75
2023-03-01T15:33:48.111Z,12.30
2023-03-01T15:36:40.295Z,13.35
2023-03-01T15:39:26.940Z,12.80
2023-03-01T15:41:53.684Z,11.38
2023-03-01T15:44:43.485Z,12.77
2023-03-01T15:47:32.048Z,13.32
2023-03-01T15:50:01.097Z,12.98
2023-03-01T15:52:40.502Z,13.00
2023-03-01T15:55:24.490Z,15.00
2023-03-01T15:58:01.532Z,12.38
2023-03-01T16:00:29.893Z,13.98
2023-03-01T16:02:57.060Z,13.23
2023-03-01T16:05:28.352Z,14.73
2023-03-01T16:07:55.873Z,12.13
2023-03-01T16:10:23.554Z,13.93
2023-03-01T16:12:53.541Z,14.23
2023-03-01T16:15:24.445Z,13.10
2023-03-01T16:17:51.792Z,12.35
2023-03-01T16:20:27.918Z,11.95
2023-03-01T16:22:55.612Z,12.98
2023-03-01T16:25:22.640Z,11.93
2023-03-01T16:27:51.463Z,12.30
2023-03-01T16:30:22.021Z,12.07
2023-03-01T16:32:50.402Z,13.10
2023-03-01T16:35:21.604Z,11.23
2023-03-01T16:37:49.659Z,12.43
2023-03-01T16:40:22.400Z,12.20
2023-03-01T16:42:51.024Z,12.40
2023-03-01T16:45:24.412Z,11.13
2023-03-01T16:47:55.687Z,13.02
2023-03-01T16:50:23.768Z,12.25
2023-03-01T16:52:50.775Z,11.85
2023-03-01T16:55:17.851Z,11.40
2023-03-01T16:57:44.907Z,11.35
2023-03-01T17:00:14.305Z,11.63
2023-03-01T17:02:42.830Z,11.13
2023-03-01T17:05:12.884Z,12.90
2023-03-01T17:07:40.531Z,11.48
2023-03-01T17:10:10.741Z,10.82
2023-03-01T17:12:38.061Z,11.40
2023-03-01T17:15:06.661Z,11.73
2023-03-01T17:17:33.696Z,11.23
2023-03-01T17:20:01.292Z,12.93
2023-03-01T17:22:29.714Z,10.80
2023-03-01T17:24:56.436Z,12.82
2023-03-01T17:27:25.398Z,11.95
2023-03-01T17:29:52.308Z,12.80
2023-03-01T17:32:19.454Z,11.35
2023-03-01T17:34:46.605Z,11.75
2023-03-01T17:37:13.332Z,13.55
2023-03-01T17:39:40.082Z,10.88
2023-03-01T17:42:07.319Z,11.13
2023-03-01T17:44:34.832Z,10.02
2023-03-01T17:47:03.443Z,10.60
2023-03-01T17:49:31.237Z,10.88
2023-03-01T17:51:58.451Z,10.48
2023-03-01T17:54:25.248Z,9.80
2023-03-01T17:56:52.580Z,9.05
2023-03-01T17:59:19.724Z,10.30
2023-03-01T18:01:46.956Z,10.80
2023-03-01T18:04:14.065Z,11.20
2023-03-01T18:06:41.059Z,10.93
2023-03-01T18:09:08.314Z,10.20
2023-03-01T18:11:36.121Z,12.48
2023-03-01T18:14:04.114Z,9.95
2023-03-01T18:16:32.258Z,10.13
2023-03-01T18:19:00.903Z,10.43
2023-03-01T18:21:30.908Z,11.23
2023-03-01T18:23:59.731Z,10.60
2023-03-01T18:26:28.232Z,12.93
2023-03-01T18:28:58.345Z,10.48
2023-03-01T18:31:26.126Z,10.88
2023-03-01T18:33:55.290Z,11.30
2023-03-01T18:36:33.437Z,10.23
2023-03-01T18:39:03.770Z,9.27
2023-03-01T18:41:30.768Z,10.95
2023-03-01T18:43:57.892Z,11.13
2023-03-01T18:46:26.049Z,11.27
2023-03-01T18:48:54.356Z,9.68
2023-03-01T18:51:27.731Z,11.75
2023-03-01T18:53:56.016Z,10.40
2023-03-01T18:56:22.804Z,11.70
2023-03-01T18:58:50.526Z,12.82
2023-03-01T19:01:28.848Z,10.35
2023-03-01T19:03:56.669Z,9.68
2023-03-01T19:06:25.425Z,11.18
2023-03-01T19:08:53.435Z,10.95
2023-03-01T19:11:20.464Z,11.10
2023-03-01T19:13:47.896Z,10.15
2023-03-01T19:16:18.288Z,9.77
2023-03-01T19:18:54.597Z,10.50
2023-03-01T19:21:25.314Z,11.15
2023-03-01T19:23:52.514Z,11.00
2023-03-01T19:26:22.595Z,10.25
2023-03-01T19:28:50.043Z,9.20
2023-03-01T19:31:23.608Z,10.60
2023-03-01T19:33:51.387Z,10.85
2023-03-01T19:36:21.447Z,10.75
2023-03-01T19:38:49.014Z,10.40
2023-03-01T19:41:18.113Z,11.27
2023-03-01T19:43:47.078Z,10.75
2023-03-01T19:46:15.204Z,10.57
2023-03-01T19:48:44.584Z,9.70
2023-03-01T19:51:12.458Z,9.20
2023-03-01T19:53:40.717Z,11.13
2023-03-01T19:56:08.844Z,7.60
2023-03-01T19:58:36.458Z,9.02
2023-03-01T20:01:03.365Z,10.05
2023-03-01T20:03:35.862Z,9.85
2023-03-01T20:06:13.372Z,10.13
2023-03-01T20:08:40.129Z,8.48
2023-03-01T20:11:10.719Z,9.15
2023-03-01T20:13:37.799Z,9.85
2023-03-01T20:16:06.043Z,9.30
2023-03-01T20:18:33.625Z,10.60
2023-03-01T20:21:00.479Z,9.98
2023-03-01T20:23:30.251Z,8.32
2023-03-01T20:26:08.083Z,9.68
2023-03-01T20:28:36.973Z,9.30
2023-03-01T20:31:11.035Z,9.05
2023-03-01T20:33:38.476Z,10.65
2023-03-01T20:36:07.504Z,9.18
2023-03-01T20:38:34.971Z,8.73
2023-03-01T20:41:08.755Z,9.43
2023-03-01T20:43:36.169Z,10.00
2023-03-01T20:46:08.305Z,9.02
2023-03-01T20:48:35.088Z,9.90
2023-03-01T20:51:06.699Z,10.80
2023-03-01T20:53:33.702Z,13.65
2023-03-01T20:56:09.240Z,13.63
2023-03-01T20:58:36.492Z,15.80
2023-03-01T21:01:05.254Z,14.80
2023-03-01T21:03:32.241Z,16.17
2023-03-01T21:06:02.162Z,14.32
2023-03-01T21:08:30.497Z,11.32
2023-03-01T21:10:58.087Z,14.05
2023-03-01T21:13:26.970Z,12.50
2023-03-01T21:16:00.356Z,14.02
2023-03-01T21:18:29.820Z,19.35
2023-03-01T21:21:01.291Z,18.75
2023-03-01T21:23:34.459Z,14.00
2023-03-01T21:26:33.116Z,15.05
2023-03-01T21:29:04.080Z,13.50
2023-03-01T21:31:34.886Z,12.20
2023-03-01T21:34:05.768Z,12.75
2023-03-01T21:36:34.041Z,12.25
2023-03-01T21:39:05.378Z,10.50
2023-03-01T21:41:35.802Z,11.68
2023-03-01T21:44:04.957Z,11.13
2023-03-01T21:46:36.997Z,10.82
2023-03-01T21:49:05.804Z,9.93
2023-03-01T21:51:33.420Z,10.18
2023-03-01T21:54:03.354Z,12.23
2023-03-01T21:56:35.169Z,10.27
2023-03-01T21:59:02.407Z,11.03
2023-03-01T22:01:29.492Z,12.48
2023-03-01T22:03:58.714Z,10.00
2023-03-01T22:06:34.272Z,12.13
2023-03-01T22:09:06.084Z,12.82
2023-03-01T22:11:36.593Z,9.82
2023-03-01T22:14:05.029Z,10.82
2023-03-01T22:16:35.680Z,11.05
2023-03-01T22:19:04.790Z,11.02
2023-03-01T22:21:31.548Z,11.48
2023-03-01T22:23:58.600Z,9.68
2023-03-01T22:26:34.573Z,8.60
2023-03-01T22:29:05.402Z,10.77
2023-03-01T22:31:32.247Z,9.57
2023-03-01T22:33:59.992Z,11.25
2023-03-01T22:36:27.878Z,9.82
2023-03-01T22:39:00.294Z,10.80
2023-03-01T22:41:34.688Z,9.88
2023-03-01T22:44:01.537Z,11.15
2023-03-01T22:46:29.198Z,9.68
2023-03-01T22:48:56.638Z,11.30
2023-03-01T22:51:30.482Z,10.02
2023-03-01T22:53:57.957Z,9.93
2023-03-01T22:56:29.144Z,11.15
2023-03-01T22:58:58.119Z,10.90
2023-03-01T23:01:26.606Z,10.35
2023-03-01T23:03:53.875Z,9.18
2023-03-01T23:06:22.457Z,11.60
2023-03-01T23:08:56.015Z,11.32
2023-03-01T23:11:25.724Z,10.32
2023-03-01T23:13:54.574Z,9.90
2023-03-01T23:16:26.163Z,10.23
2023-03-01T23:18:55.651Z,10.10
2023-03-01T23:21:23.111Z,12.02
2023-03-01T23:23:50.093Z,12.05
2023-03-01T23:26:18.526Z,9.50
2023-03-01T23:28:45.390Z,10.00
2023-03-01T23:31:15.013Z,11.10
2023-03-01T23:33:44.607Z,10.52
2023-03-01T23:36:31.138Z,11.95
2023-03-01T23:39:04.372Z,9.70
2023-03-01T23:44:02.567Z,9.25
2023-03-01T23:46:33.921Z,10.43
2023-03-01T23:49:02.049Z,11.10
2023-03-01T23:51:28.953Z,10.25
2023-03-01T23:54:01.851Z,9.52
2023-03-01T23:59:04.132Z,9.07
